Historyczne dane pomiarowe

Dodano dane terminowe – wersja testowa.

Dane z okresu 1951-2019

Wersja bazy: 1.34 [2019-03-16, lista zmian], aktualizacja planowana na 2019-04-15

Dane meteo z obszaru Polski uzyskane na podstawie danych udostępnionych przez Instytut Meteorologii i Gospodarki Wodnej – Państwowy Instytut Badawczy.

 

Wybierz Datę:    

       

TemperaturaWilgotnośćWiatrCiśnienieOpadyŚniegCzas trwania zjawisk
 Stacja t tx tn tng RH VA  wxwx mslp ppp RRR   cm mm wxwxwxwxwxwxwx
1963-03-18 -0.2 2.2 -2.5- 89.0- 6.3 3.0---- 0.2-- 1---------
1963-03-19 -1.6 3.3 -4.4- 87.3- 3.0 3.0---- 0.0------------
1963-03-20 -1.4 2.6 -4.8- 93.0- 4.7 3.3---- 0.0------------
1963-03-21 -2.3 2.7 -6.2- 87.0- 1.7 3.3---- 0.0------------
1963-03-22 -3.9 1.2 -8.6- 91.0- 0.3 1.0---- 0.0------------
1963-03-23 -2.7 3.0 -8.8- 89.0- 3.7 1.0---- 0.0------------
1963-03-24 1.2 3.8 -8.0- 90.8- 3.0 3.7---- 0.0------------
1963-03-25 4.8 7.2 0.7- 86.8- 7.0 5.0---- 3.6------------
1963-03-26 2.9 6.7 0.3- 92.8- 8.0 2.3---- 0.1------------
1963-03-27 1.3 2.8 0.1- 94.3- 7.7 1.0---- 0.0------------
1963-03-28 1.1 4.8 -0.2- 96.8- 5.0 1.0---- 0.0------------
1963-03-29 2.8 7.7 -1.4- 88.5- 1.7 3.3---- 0.0------------
1963-03-30 2.4 6.6 -1.5- 95.3- 2.0 2.3---- 0.0------------
1963-03-31 3.1 7.7 -0.3- 96.0- 3.3 2.7---- 0.0------------
1963-04-01 1.8 2.7 0.6- 91.8- 7.3 1.3---- 0.0------------
1963-04-02 0.9 7.4 -1.8- 94.5- 3.7 0.7---- 0.0------------
1963-04-03 1.8 8.5 -3.6- 85.8- 1.0 3.0---- 0.0------------
1963-04-04 4.6 11.0 -1.5- 88.0- 1.3 1.0---- 0.0------------
1963-04-05 4.4 11.2 -1.6- 76.3- 1.3 1.7---- 0.0------------
1963-04-06 4.6 10.4 -1.8- 66.5- 2.3 3.3---- 0.0------------
1963-04-07 3.6 10.4 -2.5- 76.8- 3.0 2.3---- 0.0------------
1963-04-08 4.9 11.4 -2.7- 68.8- 2.7 0.7---- 0.0------------
1963-04-09 3.6 12.1 -1.2- 77.8- 4.0 2.3---- 0.0------------
1963-04-10 10.5 17.8 -2.8- 65.8- 2.7 3.0---- 0.0------------
1963-04-11 12.7 18.5 7.6- 76.0- 6.3 1.7---- 0.0------------
1963-04-12 8.2 13.6 4.0- 84.8- 7.7 3.7---- 0.0------------
1963-04-13 4.0 9.3 2.2- 89.8- 6.0 3.0---- 0.0------------
1963-04-14 6.7 10.5 1.7- 77.5- 0.0 2.0---- 0.0------------
1963-04-15 10.9 14.5 4.4- 65.0- 0.0 3.3---- 0.0------------
1963-04-16 15.9 25.1 9.4- 78.3- 0.3 1.7---- 0.0------------
139.3 ms

 

Źródłem pochodzenia danych jest Instytut Meteorologii i Gospodarki Wodnej – Państwowy Instytut Badawczy. Dane Instytutu Meteorologii i Gospodarki Wodnej – Państwowego Instytutu Badawczego zostały przetworzone.

Dane źródłowe można odnaleźć na stronie https://dane.imgw.pl